sensor_id;sensor_type;location;lat;lon;timestamp;pressure;altitude;pressure_sealevel;temperature;humidity
17950;BME280;9100;48.700;9.316;2022-10-31T00:00:57;98204.1;;;14.12;100
17950;BME280;9100;48.700;9.316;2022-10-31T00:01:57;98208.6;;;14.1;100
17950;BME280;9100;48.700;9.316;2022-10-31T00:02:57;98204.6;;;14.07;100
17950;BME280;9100;48.700;9.316;2022-10-31T00:03:08;98207.4;;;14.06;100
17950;BME280;9100;48.700;9.316;2022-10-31T00:03:57;98203;;;14.06;100
17950;BME280;9100;48.700;9.316;2022-10-31T00:04:57;98205.8;;;14.05;100
17950;BME280;9100;48.700;9.316;2022-10-31T00:05:58;98207.4;;;14.06;100
17950;BME280;9100;48.700;9.316;2022-10-31T00:06:57;98209.3;;;14.04;100
17950;BME280;9100;48.700;9.316;2022-10-31T00:07:57;98205.2;;;14.03;100
17950;BME280;9100;48.700;9.316;2022-10-31T00:08:08;98204.2;;;14.04;100
17950;BME280;9100;48.700;9.316;2022-10-31T00:08:58;98209.3;;;14.04;100
17950;BME280;9100;48.700;9.316;2022-10-31T00:09:57;98206.8;;;14.04;100
17950;BME280;9100;48.700;9.316;2022-10-31T00:10:58;98207.8;;;14.03;100
17950;BME280;9100;48.700;9.316;2022-10-31T00:11:58;98207.8;;;14.03;100
17950;BME280;9100;48.700;9.316;2022-10-31T00:12:57;98206.2;;;14.02;100
17950;BME280;9100;48.700;9.316;2022-10-31T00:13:08;98204.6;;;14.01;100
17950;BME280;9100;48.700;9.316;2022-10-31T00:13:58;98209.7;;;14.01;100
17950;BME280;9100;48.700;9.316;2022-10-31T00:14:57;98209.1;;;13.99;100
17950;BME280;9100;48.700;9.316;2022-10-31T00:15:57;98211.1;;;13.97;100
17950;BME280;9100;48.700;9.316;2022-10-31T00:16:57;98208.90000000001;;;13.94;100
17950;BME280;9100;48.700;9.316;2022-10-31T00:17:58;98204.7;;;13.93;100
17950;BME280;9100;48.700;9.316;2022-10-31T00:18:09;98205.7;;;13.92;100
17950;BME280;9100;48.700;9.316;2022-10-31T00:18:58;98204.1;;;13.91;100
17950;BME280;9100;48.700;9.316;2022-10-31T00:19:57;98203.3;;;13.9;100
17950;BME280;9100;48.700;9.316;2022-10-31T00:20:59;98201.09999999999;;;13.87;100
17950;BME280;9100;48.700;9.316;2022-10-31T00:21:57;98207.2;;;13.86;100
17950;BME280;9100;48.700;9.316;2022-10-31T00:22:58;98205.2;;;13.82;100
17950;BME280;9100;48.700;9.316;2022-10-31T00:23:08;98204.4;;;13.81;100
17950;BME280;9100;48.700;9.316;2022-10-31T00:23:58;98206.2;;;13.81;100
17950;BME280;9100;48.700;9.316;2022-10-31T00:24:57;98209.90000000001;;;13.78;100
17950;BME280;9100;48.700;9.316;2022-10-31T00:25:59;98108.1;;;13.07;100
17950;BME280;9100;48.700;9.316;2022-10-31T00:26:57;98203;;;13.72;100
17950;BME280;9100;48.700;9.316;2022-10-31T00:27:57;98202.70000000001;;;13.67;100
17950;BME280;9100;48.700;9.316;2022-10-31T00:28:08;98206.1;;;13.68;100
17950;BME280;9100;48.700;9.316;2022-10-31T00:28:58;98210.40000000001;;;13.67;100
17950;BME280;9100;48.700;9.316;2022-10-31T00:29:57;98201.9;;;13.67;100
17950;BME280;9100;48.700;9.316;2022-10-31T00:30:58;98203.09999999999;;;13.64;100
17950;BME280;9100;48.700;9.316;2022-10-31T00:31:57;98204;;;13.63;100
17950;BME280;9100;48.700;9.316;2022-10-31T00:32:57;98204.4;;;13.6;100
17950;BME280;9100;48.700;9.316;2022-10-31T00:33:08;98205.4;;;13.59;100
17950;BME280;9100;48.700;9.316;2022-10-31T00:33:58;98205.4;;;13.59;100
17950;BME280;9100;48.700;9.316;2022-10-31T00:34:57;98198.29999999999;;;13.54;100
17950;BME280;9100;48.700;9.316;2022-10-31T00:35:57;98202.20000000001;;;13.5;100
17950;BME280;9100;48.700;9.316;2022-10-31T00:36:57;98202.09999999999;;;13.44;100
17950;BME280;9100;48.700;9.316;2022-10-31T00:37:57;98195.5;;;13.41;100
17950;BME280;9100;48.700;9.316;2022-10-31T00:38:08;98201.70000000001;;;13.4;100
17950;BME280;9100;48.700;9.316;2022-10-31T00:38:58;98203.5;;;13.4;100
17950;BME280;9100;48.700;9.316;2022-10-31T00:39:57;98197.7;;;13.38;100
17950;BME280;9100;48.700;9.316;2022-10-31T00:40:58;98207.2;;;13.37;100
17950;BME280;9100;48.700;9.316;2022-10-31T00:41:57;98198.90000000001;;;13.35;100
17950;BME280;9100;48.700;9.316;2022-10-31T00:42:57;98205;;;13.34;100
17950;BME280;9100;48.700;9.316;2022-10-31T00:43:08;98200.8;;;13.33;100
17950;BME280;9100;48.700;9.316;2022-10-31T00:43:58;98200.8;;;13.33;100
17950;BME280;9100;48.700;9.316;2022-10-31T00:44:57;98202.59999999999;;;13.33;100
17950;BME280;9100;48.700;9.316;2022-10-31T00:45:58;98202;;;13.31;100
17950;BME280;9100;48.700;9.316;2022-10-31T00:46:57;98206.3;;;13.3;100
17950;BME280;9100;48.700;9.316;2022-10-31T00:47:58;98201.5;;;13.27;100
17950;BME280;9100;48.700;9.316;2022-10-31T00:48:08;98201.5;;;13.27;100
17950;BME280;9100;48.700;9.316;2022-10-31T00:48:58;98203.09999999999;;;13.28;100
17950;BME280;9100;48.700;9.316;2022-10-31T00:49:57;98206.7;;;13.27;100
17950;BME280;9100;48.700;9.316;2022-10-31T00:50:58;98201.5;;;13.27;100
17950;BME280;9100;48.700;9.316;2022-10-31T00:51:58;98197.6;;;13.25;100
17950;BME280;9100;48.700;9.316;2022-10-31T00:52:58;98198.7;;;13.22;100
17950;BME280;9100;48.700;9.316;2022-10-31T00:53:08;98207.4;;;13.21;100
17950;BME280;9100;48.700;9.316;2022-10-31T00:53:58;98205.8;;;13.2;100
17950;BME280;9100;48.700;9.316;2022-10-31T00:54:58;98199.1;;;13.19;100
17950;BME280;9100;48.700;9.316;2022-10-31T00:55:58;98203.59999999999;;;13.17;100
17950;BME280;9100;48.700;9.316;2022-10-31T00:56:58;98193.5;;;13.16;100
17950;BME280;9100;48.700;9.316;2022-10-31T00:57:57;98197.2;;;13.13;100
17950;BME280;9100;48.700;9.316;2022-10-31T00:58:08;98202.4;;;13.13;100
17950;BME280;9100;48.700;9.316;2022-10-31T00:58:58;98188;;;13.12;100
17950;BME280;9100;48.700;9.316;2022-10-31T00:59:57;98198.2;;;13.12;100
17950;BME280;9100;48.700;9.316;2022-10-31T01:00:58;98193.9;;;13.13;100
17950;BME280;9100;48.700;9.316;2022-10-31T01:01:58;98194.7;;;13.13;100
17950;BME280;9100;48.700;9.316;2022-10-31T01:02:57;98194;;;13.11;100
17950;BME280;9100;48.700;9.316;2022-10-31T01:03:08;98194;;;13.11;100
17950;BME280;9100;48.700;9.316;2022-10-31T01:03:58;98195.8;;;13.1;100
17950;BME280;9100;48.700;9.316;2022-10-31T01:04:58;98194;;;13.11;100
17950;BME280;9100;48.700;9.316;2022-10-31T01:05:58;98195.8;;;13.1;100
17950;BME280;9100;48.700;9.316;2022-10-31T01:06:58;98196;;;13.09;100
17950;BME280;9100;48.700;9.316;2022-10-31T01:07:58;98196.40000000001;;;13.06;100
17950;BME280;9100;48.700;9.316;2022-10-31T01:08:08;98191.2;;;13.06;100
17950;BME280;9100;48.700;9.316;2022-10-31T01:08:58;98193;;;13.05;100
17950;BME280;9100;48.700;9.316;2022-10-31T01:09:57;98187.09999999999;;;13.05;100
17950;BME280;9100;48.700;9.316;2022-10-31T01:10:59;98192.6;;;13.02;100
17950;BME280;9100;48.700;9.316;2022-10-31T01:11:58;98184.2;;;13;100
17950;BME280;9100;48.700;9.316;2022-10-31T01:12:57;98188.59999999999;;;12.99;100
17950;BME280;9100;48.700;9.316;2022-10-31T01:13:08;98189.4;;;13;100
17950;BME280;9100;48.700;9.316;2022-10-31T01:13:58;98197.1;;;13;100
17950;BME280;9100;48.700;9.316;2022-10-31T01:14:57;98193.9;;;12.98;100
17950;BME280;9100;48.700;9.316;2022-10-31T01:15:58;98188.09999999999;;;12.96;100
17950;BME280;9100;48.700;9.316;2022-10-31T01:16:57;98191.7;;;12.95;100
17950;BME280;9100;48.700;9.316;2022-10-31T01:17:57;98197.2;;;12.92;100
17950;BME280;9100;48.700;9.316;2022-10-31T01:18:08;98197.2;;;12.92;100
17950;BME280;9100;48.700;9.316;2022-10-31T01:18:58;98196.40000000001;;;12.91;100
17950;BME280;9100;48.700;9.316;2022-10-31T01:19:58;98197.5;;;12.89;100
17950;BME280;9100;48.700;9.316;2022-10-31T01:20:59;98189.20000000001;;;12.87;100
17950;BME280;9100;48.700;9.316;2022-10-31T01:21:57;98190.20000000001;;;12.86;100
17950;BME280;9100;48.700;9.316;2022-10-31T01:22:57;98192.2;;;12.84;100
17950;BME280;9100;48.700;9.316;2022-10-31T01:23:08;98192.2;;;12.84;100
17950;BME280;9100;48.700;9.316;2022-10-31T01:23:58;98190.20000000001;;;12.86;100
17950;BME280;9100;48.700;9.316;2022-10-31T01:24:58;98189.20000000001;;;12.87;100
17950;BME280;9100;48.700;9.316;2022-10-31T01:25:58;98187.59999999999;;;12.86;100
17950;BME280;9100;48.700;9.316;2022-10-31T01:26:58;98187.59999999999;;;12.86;100
17950;BME280;9100;48.700;9.316;2022-10-31T01:27:57;98189.4;;;12.85;100
17950;BME280;9100;48.700;9.316;2022-10-31T01:28:08;98183.5;;;12.85;100
17950;BME280;9100;48.700;9.316;2022-10-31T01:28:58;98185.90000000001;;;12.86;100
17950;BME280;9100;48.700;9.316;2022-10-31T01:29:58;98187.59999999999;;;12.86;100
17950;BME280;9100;48.700;9.316;2022-10-31T01:31:00;98181.7;;;12.85;100
17950;BME280;9100;48.700;9.316;2022-10-31T01:31:57;98177.4;;;12.86;100
17950;BME280;9100;48.700;9.316;2022-10-31T01:32:58;98178.2;;;12.86;100
17950;BME280;9100;48.700;9.316;2022-10-31T01:33:08;98185;;;12.86;100
17950;BME280;9100;48.700;9.316;2022-10-31T01:33:58;98184.1;;;12.87;100
17950;BME280;9100;48.700;9.316;2022-10-31T01:34:58;98184.7;;;12.89;100
17950;BME280;9100;48.700;9.316;2022-10-31T01:35:58;98182.1;;;12.89;100
17950;BME280;9100;48.700;9.316;2022-10-31T01:36:58;98188.8;;;12.9;100
17950;BME280;9100;48.700;9.316;2022-10-31T01:37:57;98184.5;;;12.9;100
17950;BME280;9100;48.700;9.316;2022-10-31T01:38:08;98180.2;;;12.91;100
17950;BME280;9100;48.700;9.316;2022-10-31T01:38:59;98178.2;;;12.93;100
17950;BME280;9100;48.700;9.316;2022-10-31T01:39:58;98178.2;;;12.93;100
17950;BME280;9100;48.700;9.316;2022-10-31T01:40:57;98173.90000000001;;;12.93;100
17950;BME280;9100;48.700;9.316;2022-10-31T01:41:58;98177.4;;;12.92;100
17950;BME280;9100;48.700;9.316;2022-10-31T01:42:58;98175;;;12.91;100
17950;BME280;9100;48.700;9.316;2022-10-31T01:43:09;98181.8;;;12.92;100
17950;BME280;9100;48.700;9.316;2022-10-31T01:43:58;98175;;;12.91;100
17950;BME280;9100;48.700;9.316;2022-10-31T01:44:58;98174.1;;;12.92;100
17950;BME280;9100;48.700;9.316;2022-10-31T01:45:58;98176.59999999999;;;12.92;100
17950;BME280;9100;48.700;9.316;2022-10-31T01:46:58;98173.29999999999;;;12.91;100
17950;BME280;9100;48.700;9.316;2022-10-31T01:47:58;98178.59999999999;;;12.9;100
17950;BME280;9100;48.700;9.316;2022-10-31T01:48:11;98174.2;;;12.9;100
17950;BME280;9100;48.700;9.316;2022-10-31T01:48:59;98171.7;;;12.9;100
17950;BME280;9100;48.700;9.316;2022-10-31T01:49:59;98178.59999999999;;;12.9;100
17950;BME280;9100;48.700;9.316;2022-10-31T01:50:58;98183.7;;;12.9;100
17950;BME280;9100;48.700;9.316;2022-10-31T01:51:58;98116.8;;;12.55;100
17950;BME280;9100;48.700;9.316;2022-10-31T01:52:58;98179.6;;;12.89;100
17950;BME280;9100;48.700;9.316;2022-10-31T01:53:08;98169.3;;;12.89;100
17950;BME280;9100;48.700;9.316;2022-10-31T01:53:59;98170.9;;;12.9;100
17950;BME280;9100;48.700;9.316;2022-10-31T01:54:58;98175.9;;;12.91;100
17950;BME280;9100;48.700;9.316;2022-10-31T01:55:58;98116.6;;;12.57;100
17950;BME280;9100;48.700;9.316;2022-10-31T01:56:58;98167.4;;;12.91;100
17950;BME280;9100;48.700;9.316;2022-10-31T01:57:59;98165.7;;;12.9;100
17950;BME280;9100;48.700;9.316;2022-10-31T01:58:09;98168.3;;;12.9;100
17950;BME280;9100;48.700;9.316;2022-10-31T01:58:58;98163.2;;;12.9;100
17950;BME280;9100;48.700;9.316;2022-10-31T01:59:58;98164.8;;;12.91;100
17950;BME280;9100;48.700;9.316;2022-10-31T02:00:58;98163.8;;;12.92;100
17950;BME280;9100;48.700;9.316;2022-10-31T02:01:58;98165.59999999999;;;12.91;100
17950;BME280;9100;48.700;9.316;2022-10-31T02:02:58;98167.4;;;12.91;100
17950;BME280;9100;48.700;9.316;2022-10-31T02:03:08;98165.7;;;12.9;100
17950;BME280;9100;48.700;9.316;2022-10-31T02:03:58;98162.2;;;12.91;100
17950;BME280;9100;48.700;9.316;2022-10-31T02:04:58;98159.7;;;12.91;100
17950;BME280;9100;48.700;9.316;2022-10-31T02:05:58;98168.2;;;12.91;100
17950;BME280;9100;48.700;9.316;2022-10-31T02:06:58;98163.2;;;12.9;100
17950;BME280;9100;48.700;9.316;2022-10-31T02:07:58;98166.7;;;12.89;100
17950;BME280;9100;48.700;9.316;2022-10-31T02:08:09;98171.90000000001;;;12.89;100
17950;BME280;9100;48.700;9.316;2022-10-31T02:08:58;98164.3;;;12.87;100
17950;BME280;9100;48.700;9.316;2022-10-31T02:09:58;98162;;;12.86;100
17950;BME280;9100;48.700;9.316;2022-10-31T02:10:58;98171.40000000001;;;12.85;100
17950;BME280;9100;48.700;9.316;2022-10-31T02:11:58;98163.9;;;12.84;100
17950;BME280;9100;48.700;9.316;2022-10-31T02:12:58;98163.9;;;12.84;100
17950;BME280;9100;48.700;9.316;2022-10-31T02:13:08;98166.7;;;12.82;100
17950;BME280;9100;48.700;9.316;2022-10-31T02:13:58;98168.2;;;12.83;100
17950;BME280;9100;48.700;9.316;2022-10-31T02:14:58;98160.7;;;12.82;100
17950;BME280;9100;48.700;9.316;2022-10-31T02:15:58;98176.09999999999;;;12.82;100
17950;BME280;9100;48.700;9.316;2022-10-31T02:16:58;98171;;;12.82;100
17950;BME280;9100;48.700;9.316;2022-10-31T02:17:58;98167.6;;;12.81;100
17950;BME280;9100;48.700;9.316;2022-10-31T02:18:08;98169.4;;;12.81;100
17950;BME280;9100;48.700;9.316;2022-10-31T02:18:58;98158.4;;;12.8;100
17950;BME280;9100;48.700;9.316;2022-10-31T02:20:00;98157.5;;;12.8;100
17950;BME280;9100;48.700;9.316;2022-10-31T02:20:59;98166;;;12.8;100
17950;BME280;9100;48.700;9.316;2022-10-31T02:21:59;98164.59999999999;;;12.78;100
17950;BME280;9100;48.700;9.316;2022-10-31T02:23:04;98167.2;;;12.78;100
17950;BME280;9100;48.700;9.316;2022-10-31T02:23:18;98109;;;12.42;100
17950;BME280;9100;48.700;9.316;2022-10-31T02:24:00;98172.1;;;12.79;100
17950;BME280;9100;48.700;9.316;2022-10-31T02:25:01;98174.90000000001;;;12.78;100
17950;BME280;9100;48.700;9.316;2022-10-31T02:26:04;98169.8;;;12.78;100
17950;BME280;9100;48.700;9.316;2022-10-31T02:27:02;98173.29999999999;;;12.77;100
17950;BME280;9100;48.700;9.316;2022-10-31T02:28:02;98169;;;12.77;100
17950;BME280;9100;48.700;9.316;2022-10-31T02:28:20;98173.1;;;12.78;100
17950;BME280;9100;48.700;9.316;2022-10-31T02:29:06;98173.29999999999;;;12.77;100
17950;BME280;9100;48.700;9.316;2022-10-31T02:30:04;98173.29999999999;;;12.77;100
17950;BME280;9100;48.700;9.316;2022-10-31T02:31:00;98167.4;;;12.76;100
17950;BME280;9100;48.700;9.316;2022-10-31T02:31:58;98170.9;;;12.75;100
17950;BME280;9100;48.700;9.316;2022-10-31T02:33:00;98166.7;;;12.74;100
17950;BME280;9100;48.700;9.316;2022-10-31T02:33:11;98171.1;;;12.74;100
17950;BME280;9100;48.700;9.316;2022-10-31T02:33:59;98172.1;;;12.73;100
17950;BME280;9100;48.700;9.316;2022-10-31T02:34:58;98173.8;;;12.72;100
17950;BME280;9100;48.700;9.316;2022-10-31T02:36:00;98173.2;;;12.7;100
17950;BME280;9100;48.700;9.316;2022-10-31T02:36:58;98170.8;;;12.69;100
17950;BME280;9100;48.700;9.316;2022-10-31T02:38:00;98164.5;;;12.64;100
17950;BME280;9100;48.700;9.316;2022-10-31T02:38:12;98173.1;;;12.63;100
17950;BME280;9100;48.700;9.316;2022-10-31T02:39:00;98165.4;;;12.63;100
17950;BME280;9100;48.700;9.316;2022-10-31T02:39:59;98170.6;;;12.63;100
17950;BME280;9100;48.700;9.316;2022-10-31T02:40:59;98166.4;;;12.62;100
17950;BME280;9100;48.700;9.316;2022-10-31T02:42:01;98105.2;;;12.24;100
17950;BME280;9100;48.700;9.316;2022-10-31T02:42:59;98170.3;;;12.58;100
17950;BME280;9100;48.700;9.316;2022-10-31T02:43:11;98169.5;;;12.58;100
17950;BME280;9100;48.700;9.316;2022-10-31T02:44:00;98165.5;;;12.55;100
17950;BME280;9100;48.700;9.316;2022-10-31T02:44:59;98169.3;;;12.53;100
17950;BME280;9100;48.700;9.316;2022-10-31T02:45:58;98164.70000000001;;;12.48;100
17950;BME280;9100;48.700;9.316;2022-10-31T02:46:59;98165.8;;;12.46;100
17950;BME280;9100;48.700;9.316;2022-10-31T02:47:58;98163.8;;;12.41;100
17950;BME280;9100;48.700;9.316;2022-10-31T02:48:09;98163;;;12.41;100
17950;BME280;9100;48.700;9.316;2022-10-31T02:48:59;98167.3;;;12.4;100
17950;BME280;9100;48.700;9.316;2022-10-31T02:49:59;98161.6;;;12.38;100
17950;BME280;9100;48.700;9.316;2022-10-31T02:50:59;98161.6;;;12.38;100
17950;BME280;9100;48.700;9.316;2022-10-31T02:51:58;98158.4;;;12.36;100
17950;BME280;9100;48.700;9.316;2022-10-31T02:52:58;98148.5;;;12.33;100
17950;BME280;9100;48.700;9.316;2022-10-31T02:53:08;98156.2;;;12.33;100
17950;BME280;9100;48.700;9.316;2022-10-31T02:53:58;98155.4;;;12.33;100
17950;BME280;9100;48.700;9.316;2022-10-31T02:54:58;98154.6;;;12.32;100
17950;BME280;9100;48.700;9.316;2022-10-31T02:55:59;98158.1;;;12.31;100
17950;BME280;9100;48.700;9.316;2022-10-31T02:56:58;98158.1;;;12.31;100
17950;BME280;9100;48.700;9.316;2022-10-31T02:57:58;98109.90000000001;;;11.97;100
17950;BME280;9100;48.700;9.316;2022-10-31T02:58:09;98156.5;;;12.3;100
17950;BME280;9100;48.700;9.316;2022-10-31T02:58:58;98158.1;;;12.31;100
17950;BME280;9100;48.700;9.316;2022-10-31T02:59:59;98100.7;;;11.96;100
17950;BME280;9100;48.700;9.316;2022-10-31T03:01:01;98161.3;;;12.33;100
17950;BME280;9100;48.700;9.316;2022-10-31T03:02:02;98162.90000000001;;;12.34;100
17950;BME280;9100;48.700;9.316;2022-10-31T03:02:59;98159.7;;;12.32;100
17950;BME280;9100;48.700;9.316;2022-10-31T03:03:08;98162.3;;;12.32;100
17950;BME280;9100;48.700;9.316;2022-10-31T03:04:04;98163.9;;;12.33;100
17950;BME280;9100;48.700;9.316;2022-10-31T03:05:04;98157;;;12.34;100
17950;BME280;9100;48.700;9.316;2022-10-31T03:05:58;98161.1;;;12.35;100
17950;BME280;9100;48.700;9.316;2022-10-31T03:06:59;98150.2;;;12.33;100
17950;BME280;9100;48.700;9.316;2022-10-31T03:08:00;98164.09999999999;;;12.32;100
17950;BME280;9100;48.700;9.316;2022-10-31T03:08:10;98164.09999999999;;;12.32;100
17950;BME280;9100;48.700;9.316;2022-10-31T03:09:00;98157.8;;;12.34;100
17950;BME280;9100;48.700;9.316;2022-10-31T03:10:00;98157;;;12.34;100
17950;BME280;9100;48.700;9.316;2022-10-31T03:10:58;98152.59999999999;;;12.34;100
17950;BME280;9100;48.700;9.316;2022-10-31T03:11:58;98152.59999999999;;;12.34;100
17950;BME280;9100;48.700;9.316;2022-10-31T03:12:58;98161.3;;;12.33;100
17950;BME280;9100;48.700;9.316;2022-10-31T03:13:09;98154.6;;;12.32;100
17950;BME280;9100;48.700;9.316;2022-10-31T03:13:59;98155.4;;;12.33;100
17950;BME280;9100;48.700;9.316;2022-10-31T03:15:00;98156.2;;;12.33;100
17950;BME280;9100;48.700;9.316;2022-10-31T03:16:00;98157;;;12.34;100
17950;BME280;9100;48.700;9.316;2022-10-31T03:16:58;98155.4;;;12.33;100
17950;BME280;9100;48.700;9.316;2022-10-31T03:17:58;98160.5;;;12.33;100
17950;BME280;9100;48.700;9.316;2022-10-31T03:18:09;98154.6;;;12.32;100
17950;BME280;9100;48.700;9.316;2022-10-31T03:18:59;98161.1;;;12.35;100
17950;BME280;9100;48.700;9.316;2022-10-31T03:19:58;98155.4;;;12.33;100
17950;BME280;9100;48.700;9.316;2022-10-31T03:20:58;98154.6;;;12.32;100
17950;BME280;9100;48.700;9.316;2022-10-31T03:21:58;98156.4;;;12.32;100
17950;BME280;9100;48.700;9.316;2022-10-31T03:22:58;98157.1;;;12.32;100
17950;BME280;9100;48.700;9.316;2022-10-31T03:23:09;98153;;;12.31;100
17950;BME280;9100;48.700;9.316;2022-10-31T03:23:58;98154.6;;;12.32;100
17950;BME280;9100;48.700;9.316;2022-10-31T03:24:58;98157;;;12.34;100
17950;BME280;9100;48.700;9.316;2022-10-31T03:25:58;98149.40000000001;;;12.32;100
17950;BME280;9100;48.700;9.316;2022-10-31T03:26:58;98157;;;12.34;100
17950;BME280;9100;48.700;9.316;2022-10-31T03:27:58;98152;;;12.32;100
17950;BME280;9100;48.700;9.316;2022-10-31T03:28:08;98154.6;;;12.32;100
17950;BME280;9100;48.700;9.316;2022-10-31T03:28:59;98157.8;;;12.34;100
17950;BME280;9100;48.700;9.316;2022-10-31T03:29:58;98163.7;;;12.35;100
17950;BME280;9100;48.700;9.316;2022-10-31T03:30:58;98162.5;;;12.37;100
17950;BME280;9100;48.700;9.316;2022-10-31T03:31:58;98156.6;;;12.37;100
17950;BME280;9100;48.700;9.316;2022-10-31T03:32:58;98159.2;;;12.37;100
17950;BME280;9100;48.700;9.316;2022-10-31T03:33:09;98114.20000000001;;;12.05;100
17950;BME280;9100;48.700;9.316;2022-10-31T03:33:58;98161.6;;;12.38;100
17950;BME280;9100;48.700;9.316;2022-10-31T03:34:59;98168.5;;;12.38;100
17950;BME280;9100;48.700;9.316;2022-10-31T03:35:58;98167.7;;;12.37;100
17950;BME280;9100;48.700;9.316;2022-10-31T03:36:58;98166.09999999999;;;12.36;100
17950;BME280;9100;48.700;9.316;2022-10-31T03:37:58;98164.8;;;12.32;100
17950;BME280;9100;48.700;9.316;2022-10-31T03:38:08;98165.59999999999;;;12.33;100
17950;BME280;9100;48.700;9.316;2022-10-31T03:38:58;98164.8;;;12.32;100
17950;BME280;9100;48.700;9.316;2022-10-31T03:39:58;98165.8;;;12.31;100
17950;BME280;9100;48.700;9.316;2022-10-31T03:40:58;98178;;;12.29;100
17950;BME280;9100;48.700;9.316;2022-10-31T03:41:59;98166.5;;;12.25;100
17950;BME280;9100;48.700;9.316;2022-10-31T03:42:59;98169.4;;;12.22;100
17950;BME280;9100;48.700;9.316;2022-10-31T03:43:09;98169.4;;;12.22;100
17950;BME280;9100;48.700;9.316;2022-10-31T03:43:59;98169.4;;;12.22;100
17950;BME280;9100;48.700;9.316;2022-10-31T03:44:59;98174.59999999999;;;12.22;100
17950;BME280;9100;48.700;9.316;2022-10-31T03:45:58;98176.5;;;12.2;100
17950;BME280;9100;48.700;9.316;2022-10-31T03:46:58;98178.3;;;12.2;100
17950;BME280;9100;48.700;9.316;2022-10-31T03:47:58;98174.1;;;12.19;100
17950;BME280;9100;48.700;9.316;2022-10-31T03:48:08;98176.70000000001;;;12.19;100
17950;BME280;9100;48.700;9.316;2022-10-31T03:48:58;98175.7;;;12.2;100
17950;BME280;9100;48.700;9.316;2022-10-31T03:49:58;98172.2;;;12.21;100
17950;BME280;9100;48.700;9.316;2022-10-31T03:50:59;98170.6;;;12.2;100
17950;BME280;9100;48.700;9.316;2022-10-31T03:51:58;98169;;;12.19;100
17950;BME280;9100;48.700;9.316;2022-10-31T03:52:58;98176.8;;;12.17;100
17950;BME280;9100;48.700;9.316;2022-10-31T03:53:09;98170.8;;;12.18;100
17950;BME280;9100;48.700;9.316;2022-10-31T03:54:00;98162.3;;;12.18;100
17950;BME280;9100;48.700;9.316;2022-10-31T03:54:58;98170;;;12.18;100
17950;BME280;9100;48.700;9.316;2022-10-31T03:55:59;98174.3;;;12.17;100
17950;BME280;9100;48.700;9.316;2022-10-31T03:56:59;98172.90000000001;;;12.14;100
17950;BME280;9100;48.700;9.316;2022-10-31T03:57:59;98167.3;;;12.11;100
17950;BME280;9100;48.700;9.316;2022-10-31T03:58:09;98167.3;;;12.11;100
17950;BME280;9100;48.700;9.316;2022-10-31T03:58:58;98169.9;;;12.11;100
17950;BME280;9100;48.700;9.316;2022-10-31T03:59:58;98172.40000000001;;;12.11;100
17950;BME280;9100;48.700;9.316;2022-10-31T04:00:58;98176.59999999999;;;12.12;100
17950;BME280;9100;48.700;9.316;2022-10-31T04:01:59;98169.1;;;12.1;100
17950;BME280;9100;48.700;9.316;2022-10-31T04:02:58;98175.2;;;12.09;100
17950;BME280;9100;48.700;9.316;2022-10-31T04:03:09;98170.8;;;12.1;100
17950;BME280;9100;48.700;9.316;2022-10-31T04:03:58;98168.1;;;12.11;100
17950;BME280;9100;48.700;9.316;2022-10-31T04:04:58;98167.3;;;12.11;100
17950;BME280;9100;48.700;9.316;2022-10-31T04:05:58;98165.5;;;12.11;100
17950;BME280;9100;48.700;9.316;2022-10-31T04:06:58;98161.2;;;12.12;100
17950;BME280;9100;48.700;9.316;2022-10-31T04:07:58;98166.5;;;12.1;100
17950;BME280;9100;48.700;9.316;2022-10-31T04:08:09;98157.8;;;12.11;100
17950;BME280;9100;48.700;9.316;2022-10-31T04:08:58;98168.1;;;12.11;100
17950;BME280;9100;48.700;9.316;2022-10-31T04:09:58;98162.2;;;12.11;100
17950;BME280;9100;48.700;9.316;2022-10-31T04:10:58;98160.6;;;12.1;100
17950;BME280;9100;48.700;9.316;2022-10-31T04:11:58;98171.5;;;12.12;100
17950;BME280;9100;48.700;9.316;2022-10-31T04:13:00;98170.1;;;12.09;100
17950;BME280;9100;48.700;9.316;2022-10-31T04:13:09;98165.7;;;12.1;100
17950;BME280;9100;48.700;9.316;2022-10-31T04:13:58;98164.70000000001;;;12.11;100
17950;BME280;9100;48.700;9.316;2022-10-31T04:14:58;98165.9;;;12.08;100
17950;BME280;9100;48.700;9.316;2022-10-31T04:15:58;98172.79999999999;;;12.08;100
17950;BME280;9100;48.700;9.316;2022-10-31T04:16:58;98165.3;;;12.06;100
17950;BME280;9100;48.700;9.316;2022-10-31T04:17:58;98175.5;;;12.06;100
17950;BME280;9100;48.700;9.316;2022-10-31T04:18:08;98173.90000000001;;;12.05;100
17950;BME280;9100;48.700;9.316;2022-10-31T04:18:58;98176.3;;;12.07;100
17950;BME280;9100;48.700;9.316;2022-10-31T04:19:58;98167;;;12.06;100
17950;BME280;9100;48.700;9.316;2022-10-31T04:20:59;98164.59999999999;;;12.04;100
17950;BME280;9100;48.700;9.316;2022-10-31T04:21:58;98172.5;;;12.03;100
17950;BME280;9100;48.700;9.316;2022-10-31T04:22:58;98158.3;;;12;100
17950;BME280;9100;48.700;9.316;2022-10-31T04:23:11;98165.20000000001;;;12;100
17950;BME280;9100;48.700;9.316;2022-10-31T04:23:58;98161.6;;;12.01;100
17950;BME280;9100;48.700;9.316;2022-10-31T04:24:58;98157.3;;;12.01;100
17950;BME280;9100;48.700;9.316;2022-10-31T04:25:58;98162.40000000001;;;12.01;100
17950;BME280;9100;48.700;9.316;2022-10-31T04:26:58;98166;;;12;100
17950;BME280;9100;48.700;9.316;2022-10-31T04:27:58;98162.59999999999;;;12;100
17950;BME280;9100;48.700;9.316;2022-10-31T04:28:08;98159.2;;;11.99;100
17950;BME280;9100;48.700;9.316;2022-10-31T04:28:58;98162.59999999999;;;12;100
17950;BME280;9100;48.700;9.316;2022-10-31T04:29:58;98160;;;12;100
17950;BME280;9100;48.700;9.316;2022-10-31T04:30:58;98167.6;;;12.01;100
17950;BME280;9100;48.700;9.316;2022-10-31T04:31:58;98166.8;;;12.01;100
17950;BME280;9100;48.700;9.316;2022-10-31T04:32:58;98154.9;;;12;100
17950;BME280;9100;48.700;9.316;2022-10-31T04:33:08;98158.4;;;11.99;100
17950;BME280;9100;48.700;9.316;2022-10-31T04:33:58;98157.5;;;12;100